sensor_id;sensor_type;location;lat;lon;timestamp;P1;durP1;ratioP1;P2;durP2;ratioP2
81864;SDS011;71313;43.514;1.500;2023-10-31T00:02:16;1.67;;;1.20;;
81864;SDS011;71313;43.514;1.500;2023-10-31T00:04:45;2.25;;;1.27;;
81864;SDS011;71313;43.514;1.500;2023-10-31T00:07:10;2.22;;;1.23;;
81864;SDS011;71313;43.514;1.500;2023-10-31T00:09:37;2.40;;;1.45;;
81864;SDS011;71313;43.514;1.500;2023-10-31T00:12:04;3.03;;;1.40;;
81864;SDS011;71313;43.514;1.500;2023-10-31T00:14:31;2.42;;;1.30;;
81864;SDS011;71313;43.514;1.500;2023-10-31T00:16:58;3.10;;;1.35;;
81864;SDS011;71313;43.514;1.500;2023-10-31T00:19:25;2.53;;;1.60;;
81864;SDS011;71313;43.514;1.500;2023-10-31T00:21:52;2.50;;;1.45;;
81864;SDS011;71313;43.514;1.500;2023-10-31T00:24:18;3.65;;;1.80;;
81864;SDS011;71313;43.514;1.500;2023-10-31T00:26:44;3.47;;;1.80;;
81864;SDS011;71313;43.514;1.500;2023-10-31T00:29:12;2.65;;;1.60;;
81864;SDS011;71313;43.514;1.500;2023-10-31T00:31:39;4.28;;;1.80;;
81864;SDS011;71313;43.514;1.500;2023-10-31T00:34:06;2.70;;;1.63;;
81864;SDS011;71313;43.514;1.500;2023-10-31T00:36:33;3.53;;;1.90;;
81864;SDS011;71313;43.514;1.500;2023-10-31T00:39:01;3.30;;;1.70;;
81864;SDS011;71313;43.514;1.500;2023-10-31T00:41:28;3.58;;;1.95;;
81864;SDS011;71313;43.514;1.500;2023-10-31T00:43:54;3.35;;;1.65;;
81864;SDS011;71313;43.514;1.500;2023-10-31T00:46:22;3.17;;;1.63;;
81864;SDS011;71313;43.514;1.500;2023-10-31T00:48:49;3.40;;;1.95;;
81864;SDS011;71313;43.514;1.500;2023-10-31T00:51:15;2.72;;;1.63;;
81864;SDS011;71313;43.514;1.500;2023-10-31T00:53:42;4.18;;;1.75;;
81864;SDS011;71313;43.514;1.500;2023-10-31T00:56:09;2.75;;;1.60;;
81864;SDS011;71313;43.514;1.500;2023-10-31T00:58:36;3.88;;;1.63;;
81864;SDS011;71313;43.514;1.500;2023-10-31T01:01:03;3.53;;;2.05;;
81864;SDS011;71313;43.514;1.500;2023-10-31T01:03:30;2.85;;;1.90;;
81864;SDS011;71313;43.514;1.500;2023-10-31T01:05:57;2.75;;;1.70;;
81864;SDS011;71313;43.514;1.500;2023-10-31T01:08:23;4.57;;;1.77;;
81864;SDS011;71313;43.514;1.500;2023-10-31T01:10:50;3.33;;;1.38;;
81864;SDS011;71313;43.514;1.500;2023-10-31T01:13:16;2.35;;;1.60;;
81864;SDS011;71313;43.514;1.500;2023-10-31T01:15:43;2.92;;;1.88;;
81864;SDS011;71313;43.514;1.500;2023-10-31T01:18:11;2.78;;;1.50;;
81864;SDS011;71313;43.514;1.500;2023-10-31T01:20:41;3.97;;;1.77;;
81864;SDS011;71313;43.514;1.500;2023-10-31T01:23:09;3.15;;;1.60;;
81864;SDS011;71313;43.514;1.500;2023-10-31T01:25:37;2.78;;;1.70;;
81864;SDS011;71313;43.514;1.500;2023-10-31T01:28:04;4.25;;;1.77;;
81864;SDS011;71313;43.514;1.500;2023-10-31T01:30:30;3.17;;;1.50;;
81864;SDS011;71313;43.514;1.500;2023-10-31T01:33:00;4.43;;;1.70;;
81864;SDS011;71313;43.514;1.500;2023-10-31T01:35:25;3.53;;;1.55;;
81864;SDS011;71313;43.514;1.500;2023-10-31T01:37:54;2.30;;;1.33;;
81864;SDS011;71313;43.514;1.500;2023-10-31T01:40:26;2.47;;;1.40;;
81864;SDS011;71313;43.514;1.500;2023-10-31T01:42:52;2.42;;;1.58;;
81864;SDS011;71313;43.514;1.500;2023-10-31T01:45:19;2.22;;;1.65;;
81864;SDS011;71313;43.514;1.500;2023-10-31T01:47:46;3.10;;;1.70;;
81864;SDS011;71313;43.514;1.500;2023-10-31T01:50:14;2.67;;;1.55;;
81864;SDS011;71313;43.514;1.500;2023-10-31T01:52:43;2.58;;;1.50;;
81864;SDS011;71313;43.514;1.500;2023-10-31T01:55:11;3.10;;;1.50;;
81864;SDS011;71313;43.514;1.500;2023-10-31T01:57:37;2.28;;;1.55;;
81864;SDS011;71313;43.514;1.500;2023-10-31T02:00:05;4.07;;;1.40;;
81864;SDS011;71313;43.514;1.500;2023-10-31T02:02:31;1.90;;;1.20;;
81864;SDS011;71313;43.514;1.500;2023-10-31T02:05:00;2.72;;;1.40;;
81864;SDS011;71313;43.514;1.500;2023-10-31T02:07:26;2.63;;;1.70;;
81864;SDS011;71313;43.514;1.500;2023-10-31T02:09:53;3.38;;;1.20;;
81864;SDS011;71313;43.514;1.500;2023-10-31T02:12:35;1.70;;;1.17;;
81864;SDS011;71313;43.514;1.500;2023-10-31T02:44:55;2.53;;;1.30;;
81864;SDS011;71313;43.514;1.500;2023-10-31T02:47:24;1.85;;;1.10;;
81864;SDS011;71313;43.514;1.500;2023-10-31T02:49:51;2.28;;;1.10;;
81864;SDS011;71313;43.514;1.500;2023-10-31T02:52:20;1.92;;;1.00;;
81864;SDS011;71313;43.514;1.500;2023-10-31T02:54:45;2.58;;;1.10;;
81864;SDS011;71313;43.514;1.500;2023-10-31T02:57:14;1.35;;;1.10;;
81864;SDS011;71313;43.514;1.500;2023-10-31T02:59:40;1.95;;;1.10;;
81864;SDS011;71313;43.514;1.500;2023-10-31T03:02:07;2.42;;;0.90;;
81864;SDS011;71313;43.514;1.500;2023-10-31T03:04:34;3.35;;;1.10;;
81864;SDS011;71313;43.514;1.500;2023-10-31T03:07:01;1.92;;;0.90;;
81864;SDS011;71313;43.514;1.500;2023-10-31T03:09:29;1.92;;;1.00;;
81864;SDS011;71313;43.514;1.500;2023-10-31T03:11:56;3.08;;;1.20;;
81864;SDS011;71313;43.514;1.500;2023-10-31T03:14:22;2.33;;;1.08;;
81864;SDS011;71313;43.514;1.500;2023-10-31T03:16:48;2.17;;;1.00;;
81864;SDS011;71313;43.514;1.500;2023-10-31T03:19:16;1.20;;;0.93;;
81864;SDS011;71313;43.514;1.500;2023-10-31T03:21:41;2.97;;;1.02;;
81864;SDS011;71313;43.514;1.500;2023-10-31T03:24:08;3.55;;;1.10;;
81864;SDS011;71313;43.514;1.500;2023-10-31T03:26:36;3.13;;;1.00;;
81864;SDS011;71313;43.514;1.500;2023-10-31T03:29:03;2.90;;;0.90;;
81864;SDS011;71313;43.514;1.500;2023-10-31T03:31:28;2.40;;;1.00;;
81864;SDS011;71313;43.514;1.500;2023-10-31T03:33:55;1.85;;;1.13;;
81864;SDS011;71313;43.514;1.500;2023-10-31T03:36:21;2.97;;;1.00;;
81864;SDS011;71313;43.514;1.500;2023-10-31T03:38:47;2.30;;;1.15;;
81864;SDS011;71313;43.514;1.500;2023-10-31T03:41:15;2.00;;;0.90;;
81864;SDS011;71313;43.514;1.500;2023-10-31T03:43:41;2.08;;;1.13;;
81864;SDS011;71313;43.514;1.500;2023-10-31T03:46:09;4.20;;;1.33;;
81864;SDS011;71313;43.514;1.500;2023-10-31T03:48:38;2.83;;;0.90;;
81864;SDS011;71313;43.514;1.500;2023-10-31T03:51:06;2.00;;;0.90;;
81864;SDS011;71313;43.514;1.500;2023-10-31T03:53:35;1.85;;;0.98;;
81864;SDS011;71313;43.514;1.500;2023-10-31T03:56:00;2.03;;;1.00;;
81864;SDS011;71313;43.514;1.500;2023-10-31T03:58:28;2.63;;;0.93;;
81864;SDS011;71313;43.514;1.500;2023-10-31T04:00:54;3.70;;;0.98;;
81864;SDS011;71313;43.514;1.500;2023-10-31T04:03:23;3.20;;;0.93;;
81864;SDS011;71313;43.514;1.500;2023-10-31T04:05:50;3.22;;;0.95;;
81864;SDS011;71313;43.514;1.500;2023-10-31T04:08:19;2.67;;;0.93;;
81864;SDS011;71313;43.514;1.500;2023-10-31T04:10:47;2.28;;;1.00;;
81864;SDS011;71313;43.514;1.500;2023-10-31T04:13:13;2.33;;;0.90;;
81864;SDS011;71313;43.514;1.500;2023-10-31T04:15:40;2.20;;;1.00;;
81864;SDS011;71313;43.514;1.500;2023-10-31T04:18:09;1.83;;;0.88;;
81864;SDS011;71313;43.514;1.500;2023-10-31T04:20:37;1.58;;;0.90;;
81864;SDS011;71313;43.514;1.500;2023-10-31T04:23:05;1.73;;;1.10;;
81864;SDS011;71313;43.514;1.500;2023-10-31T04:25:33;1.55;;;0.90;;
81864;SDS011;71313;43.514;1.500;2023-10-31T04:27:58;2.65;;;0.90;;
81864;SDS011;71313;43.514;1.500;2023-10-31T04:30:28;2.40;;;1.00;;
81864;SDS011;71313;43.514;1.500;2023-10-31T04:32:56;2.00;;;0.93;;
81864;SDS011;71313;43.514;1.500;2023-10-31T04:35:24;1.52;;;0.80;;
81864;SDS011;71313;43.514;1.500;2023-10-31T04:37:51;1.80;;;0.52;;
81864;SDS011;71313;43.514;1.500;2023-10-31T04:40:17;4.63;;;0.77;;
81864;SDS011;71313;43.514;1.500;2023-10-31T04:42:46;1.88;;;0.70;;
81864;SDS011;71313;43.514;1.500;2023-10-31T04:45:13;1.83;;;0.75;;
81864;SDS011;71313;43.514;1.500;2023-10-31T04:47:38;1.77;;;0.90;;
81864;SDS011;71313;43.514;1.500;2023-10-31T04:50:06;1.92;;;0.75;;
81864;SDS011;71313;43.514;1.500;2023-10-31T04:52:34;1.08;;;0.60;;
81864;SDS011;71313;43.514;1.500;2023-10-31T04:55:01;3.50;;;0.70;;
81864;SDS011;71313;43.514;1.500;2023-10-31T04:57:28;1.40;;;0.70;;
81864;SDS011;71313;43.514;1.500;2023-10-31T04:59:56;3.00;;;0.63;;
81864;SDS011;71313;43.514;1.500;2023-10-31T05:02:24;1.98;;;0.77;;
81864;SDS011;71313;43.514;1.500;2023-10-31T05:04:51;1.25;;;0.52;;
81864;SDS011;71313;43.514;1.500;2023-10-31T05:07:19;2.17;;;0.55;;
81864;SDS011;71313;43.514;1.500;2023-10-31T05:09:48;1.23;;;0.60;;
81864;SDS011;71313;43.514;1.500;2023-10-31T05:12:15;1.10;;;0.55;;
81864;SDS011;71313;43.514;1.500;2023-10-31T05:14:41;1.50;;;0.60;;
81864;SDS011;71313;43.514;1.500;2023-10-31T05:17:07;2.05;;;0.50;;
81864;SDS011;71313;43.514;1.500;2023-10-31T05:19:33;0.60;;;0.50;;
81864;SDS011;71313;43.514;1.500;2023-10-31T05:21:59;1.80;;;0.73;;
81864;SDS011;71313;43.514;1.500;2023-10-31T05:24:26;1.30;;;0.60;;
81864;SDS011;71313;43.514;1.500;2023-10-31T05:26:57;1.13;;;0.40;;
81864;SDS011;71313;43.514;1.500;2023-10-31T05:29:24;0.82;;;0.43;;
81864;SDS011;71313;43.514;1.500;2023-10-31T05:31:53;2.13;;;0.60;;
81864;SDS011;71313;43.514;1.500;2023-10-31T05:34:19;1.20;;;0.60;;
81864;SDS011;71313;43.514;1.500;2023-10-31T05:36:45;1.95;;;0.60;;
81864;SDS011;71313;43.514;1.500;2023-10-31T05:39:13;1.90;;;0.50;;
81864;SDS011;71313;43.514;1.500;2023-10-31T05:41:40;1.58;;;0.50;;
81864;SDS011;71313;43.514;1.500;2023-10-31T05:44:08;1.65;;;0.57;;
81864;SDS011;71313;43.514;1.500;2023-10-31T05:46:38;1.15;;;0.40;;
81864;SDS011;71313;43.514;1.500;2023-10-31T05:49:06;1.38;;;0.40;;
81864;SDS011;71313;43.514;1.500;2023-10-31T05:51:33;1.88;;;0.60;;
81864;SDS011;71313;43.514;1.500;2023-10-31T05:54:00;2.42;;;0.73;;
81864;SDS011;71313;43.514;1.500;2023-10-31T05:56:26;0.70;;;0.40;;
81864;SDS011;71313;43.514;1.500;2023-10-31T05:58:54;2.13;;;0.40;;
81864;SDS011;71313;43.514;1.500;2023-10-31T06:01:22;0.90;;;0.43;;
81864;SDS011;71313;43.514;1.500;2023-10-31T06:03:48;1.23;;;0.50;;
81864;SDS011;71313;43.514;1.500;2023-10-31T06:06:14;1.85;;;0.43;;
81864;SDS011;71313;43.514;1.500;2023-10-31T06:08:42;0.73;;;0.30;;
81864;SDS011;71313;43.514;1.500;2023-10-31T06:11:09;0.43;;;0.40;;
81864;SDS011;71313;43.514;1.500;2023-10-31T06:13:37;1.05;;;0.60;;
81864;SDS011;71313;43.514;1.500;2023-10-31T06:16:05;1.42;;;0.60;;
81864;SDS011;71313;43.514;1.500;2023-10-31T06:18:31;1.10;;;0.50;;
81864;SDS011;71313;43.514;1.500;2023-10-31T06:20:59;1.40;;;0.40;;
81864;SDS011;71313;43.514;1.500;2023-10-31T06:23:25;0.60;;;0.40;;
81864;SDS011;71313;43.514;1.500;2023-10-31T06:25:53;1.77;;;0.40;;
81864;SDS011;71313;43.514;1.500;2023-10-31T06:28:20;0.80;;;0.60;;
81864;SDS011;71313;43.514;1.500;2023-10-31T06:30:49;1.33;;;0.43;;
81864;SDS011;71313;43.514;1.500;2023-10-31T06:33:17;1.67;;;0.57;;
81864;SDS011;71313;43.514;1.500;2023-10-31T06:35:44;0.95;;;0.40;;
81864;SDS011;71313;43.514;1.500;2023-10-31T06:38:10;1.58;;;0.50;;
81864;SDS011;71313;43.514;1.500;2023-10-31T06:40:38;0.90;;;0.50;;
81864;SDS011;71313;43.514;1.500;2023-10-31T06:43:03;2.13;;;0.45;;
81864;SDS011;71313;43.514;1.500;2023-10-31T06:45:30;2.13;;;0.40;;
81864;SDS011;71313;43.514;1.500;2023-10-31T06:47:56;1.05;;;0.40;;
81864;SDS011;71313;43.514;1.500;2023-10-31T06:50:24;0.80;;;0.50;;
81864;SDS011;71313;43.514;1.500;2023-10-31T06:52:52;0.73;;;0.30;;
81864;SDS011;71313;43.514;1.500;2023-10-31T06:55:21;1.30;;;0.35;;
81864;SDS011;71313;43.514;1.500;2023-10-31T06:57:48;1.08;;;0.50;;
81864;SDS011;71313;43.514;1.500;2023-10-31T07:00:13;1.00;;;0.50;;
81864;SDS011;71313;43.514;1.500;2023-10-31T07:02:39;1.05;;;0.65;;
81864;SDS011;71313;43.514;1.500;2023-10-31T07:05:07;1.55;;;0.60;;
81864;SDS011;71313;43.514;1.500;2023-10-31T07:07:35;0.75;;;0.40;;
81864;SDS011;71313;43.514;1.500;2023-10-31T07:10:01;1.00;;;0.50;;
81864;SDS011;71313;43.514;1.500;2023-10-31T07:12:29;2.08;;;0.52;;
81864;SDS011;71313;43.514;1.500;2023-10-31T07:14:54;1.38;;;0.43;;
81864;SDS011;71313;43.514;1.500;2023-10-31T07:17:23;1.42;;;0.77;;
81864;SDS011;71313;43.514;1.500;2023-10-31T07:19:51;1.48;;;0.40;;
81864;SDS011;71313;43.514;1.500;2023-10-31T07:22:19;1.75;;;0.50;;
81864;SDS011;71313;43.514;1.500;2023-10-31T07:24:49;0.98;;;0.47;;
81864;SDS011;71313;43.514;1.500;2023-10-31T07:27:16;1.33;;;0.55;;
81864;SDS011;71313;43.514;1.500;2023-10-31T07:29:44;2.28;;;0.50;;
81864;SDS011;71313;43.514;1.500;2023-10-31T07:32:11;1.98;;;0.60;;
81864;SDS011;71313;43.514;1.500;2023-10-31T07:34:40;2.10;;;0.60;;
81864;SDS011;71313;43.514;1.500;2023-10-31T07:37:06;1.00;;;0.50;;
81864;SDS011;71313;43.514;1.500;2023-10-31T07:39:32;2.03;;;0.60;;
81864;SDS011;71313;43.514;1.500;2023-10-31T07:41:58;1.88;;;0.50;;
81864;SDS011;71313;43.514;1.500;2023-10-31T07:44:26;0.40;;;0.40;;
81864;SDS011;71313;43.514;1.500;2023-10-31T07:46:54;1.23;;;0.40;;
81864;SDS011;71313;43.514;1.500;2023-10-31T07:49:20;3.00;;;0.50;;
81864;SDS011;71313;43.514;1.500;2023-10-31T07:51:47;1.90;;;0.65;;
81864;SDS011;71313;43.514;1.500;2023-10-31T07:54:14;1.50;;;0.50;;
81864;SDS011;71313;43.514;1.500;2023-10-31T07:56:41;1.77;;;0.60;;
81864;SDS011;71313;43.514;1.500;2023-10-31T07:59:07;2.45;;;0.60;;
81864;SDS011;71313;43.514;1.500;2023-10-31T08:01:35;2.90;;;0.80;;
81864;SDS011;71313;43.514;1.500;2023-10-31T08:04:01;2.00;;;0.63;;
81864;SDS011;71313;43.514;1.500;2023-10-31T08:06:28;1.13;;;0.50;;
81864;SDS011;71313;43.514;1.500;2023-10-31T08:08:59;1.83;;;0.60;;
81864;SDS011;71313;43.514;1.500;2023-10-31T08:11:24;2.03;;;0.40;;
81864;SDS011;71313;43.514;1.500;2023-10-31T08:13:53;1.85;;;0.57;;
81864;SDS011;71313;43.514;1.500;2023-10-31T08:16:20;1.17;;;0.40;;
81864;SDS011;71313;43.514;1.500;2023-10-31T08:18:46;1.70;;;0.52;;
81864;SDS011;71313;43.514;1.500;2023-10-31T08:21:14;1.48;;;0.40;;
81864;SDS011;71313;43.514;1.500;2023-10-31T08:23:40;2.42;;;0.57;;
81864;SDS011;71313;43.514;1.500;2023-10-31T08:26:09;1.85;;;0.52;;
81864;SDS011;71313;43.514;1.500;2023-10-31T08:28:36;1.40;;;0.50;;
81864;SDS011;71313;43.514;1.500;2023-10-31T08:31:02;2.08;;;0.40;;
81864;SDS011;71313;43.514;1.500;2023-10-31T08:33:28;1.15;;;0.35;;
81864;SDS011;71313;43.514;1.500;2023-10-31T08:35:56;1.15;;;0.60;;
81864;SDS011;71313;43.514;1.500;2023-10-31T08:38:23;1.77;;;0.60;;
81864;SDS011;71313;43.514;1.500;2023-10-31T08:40:53;2.30;;;0.40;;
81864;SDS011;71313;43.514;1.500;2023-10-31T08:43:21;1.80;;;0.50;;
81864;SDS011;71313;43.514;1.500;2023-10-31T08:45:48;2.38;;;0.60;;
81864;SDS011;71313;43.514;1.500;2023-10-31T08:48:14;1.85;;;0.50;;
81864;SDS011;71313;43.514;1.500;2023-10-31T08:50:41;2.53;;;0.70;;
81864;SDS011;71313;43.514;1.500;2023-10-31T08:53:09;2.13;;;0.80;;
81864;SDS011;71313;43.514;1.500;2023-10-31T08:55:36;2.35;;;0.77;;
81864;SDS011;71313;43.514;1.500;2023-10-31T08:58:03;2.05;;;0.73;;
81864;SDS011;71313;43.514;1.500;2023-10-31T09:00:31;1.85;;;0.77;;
81864;SDS011;71313;43.514;1.500;2023-10-31T09:02:59;3.92;;;0.98;;
81864;SDS011;71313;43.514;1.500;2023-10-31T09:05:28;2.70;;;0.60;;
81864;SDS011;71313;43.514;1.500;2023-10-31T09:07:54;2.83;;;1.00;;
81864;SDS011;71313;43.514;1.500;2023-10-31T09:10:20;1.60;;;0.60;;
81864;SDS011;71313;43.514;1.500;2023-10-31T09:12:45;2.78;;;0.65;;
81864;SDS011;71313;43.514;1.500;2023-10-31T09:15:12;5.38;;;1.20;;
81864;SDS011;71313;43.514;1.500;2023-10-31T09:17:40;2.63;;;1.00;;
81864;SDS011;71313;43.514;1.500;2023-10-31T09:20:07;2.63;;;0.90;;
81864;SDS011;71313;43.514;1.500;2023-10-31T09:22:33;2.40;;;0.75;;
81864;SDS011;71313;43.514;1.500;2023-10-31T09:24:59;4.03;;;0.70;;
81864;SDS011;71313;43.514;1.500;2023-10-31T09:27:27;3.50;;;0.93;;
81864;SDS011;71313;43.514;1.500;2023-10-31T09:29:57;3.60;;;0.75;;
81864;SDS011;71313;43.514;1.500;2023-10-31T09:32:24;2.78;;;1.00;;
81864;SDS011;71313;43.514;1.500;2023-10-31T09:34:52;3.03;;;0.85;;
81864;SDS011;71313;43.514;1.500;2023-10-31T09:37:20;3.47;;;0.85;;
81864;SDS011;71313;43.514;1.500;2023-10-31T09:39:46;3.35;;;0.80;;
81864;SDS011;71313;43.514;1.500;2023-10-31T09:42:12;4.53;;;0.98;;
81864;SDS011;71313;43.514;1.500;2023-10-31T09:44:38;4.22;;;1.10;;
81864;SDS011;71313;43.514;1.500;2023-10-31T09:47:06;2.72;;;0.80;;
81864;SDS011;71313;43.514;1.500;2023-10-31T09:49:32;2.42;;;0.98;;
81864;SDS011;71313;43.514;1.500;2023-10-31T09:52:02;4.95;;;0.88;;
81864;SDS011;71313;43.514;1.500;2023-10-31T09:54:28;4.10;;;1.13;;
81864;SDS011;71313;43.514;1.500;2023-10-31T09:56:59;3.50;;;0.85;;
81864;SDS011;71313;43.514;1.500;2023-10-31T09:59:27;3.15;;;0.80;;
81864;SDS011;71313;43.514;1.500;2023-10-31T10:01:56;2.35;;;0.80;;
81864;SDS011;71313;43.514;1.500;2023-10-31T10:04:22;2.40;;;0.80;;
81864;SDS011;71313;43.514;1.500;2023-10-31T10:06:59;3.67;;;0.80;;
81864;SDS011;71313;43.514;1.500;2023-10-31T10:09:27;2.75;;;0.77;;
81864;SDS011;71313;43.514;1.500;2023-10-31T10:11:55;2.13;;;0.82;;
81864;SDS011;71313;43.514;1.500;2023-10-31T10:14:24;2.78;;;0.70;;
81864;SDS011;71313;43.514;1.500;2023-10-31T10:16:51;1.98;;;0.70;;
81864;SDS011;71313;43.514;1.500;2023-10-31T10:19:21;4.30;;;0.90;;
81864;SDS011;71313;43.514;1.500;2023-10-31T10:21:52;1.98;;;0.90;;
81864;SDS011;71313;43.514;1.500;2023-10-31T10:24:21;3.17;;;1.05;;
81864;SDS011;71313;43.514;1.500;2023-10-31T10:26:50;2.42;;;0.75;;
81864;SDS011;71313;43.514;1.500;2023-10-31T10:29:18;2.03;;;0.80;;
81864;SDS011;71313;43.514;1.500;2023-10-31T10:31:44;3.65;;;0.88;;
81864;SDS011;71313;43.514;1.500;2023-10-31T10:34:10;2.85;;;1.02;;
81864;SDS011;71313;43.514;1.500;2023-10-31T10:36:41;5.88;;;0.77;;
81864;SDS011;71313;43.514;1.500;2023-10-31T10:39:21;2.20;;;0.70;;
81864;SDS011;71313;43.514;1.500;2023-10-31T10:41:50;4.22;;;0.80;;
81864;SDS011;71313;43.514;1.500;2023-10-31T10:44:42;1.80;;;0.47;;
81864;SDS011;71313;43.514;1.500;2023-10-31T10:47:10;3.92;;;0.70;;
81864;SDS011;71313;43.514;1.500;2023-10-31T10:49:41;2.33;;;0.60;;
81864;SDS011;71313;43.514;1.500;2023-10-31T10:54:52;4.10;;;0.95;;
81864;SDS011;71313;43.514;1.500;2023-10-31T10:59:54;2.80;;;0.82;;
81864;SDS011;71313;43.514;1.500;2023-10-31T11:02:26;4.00;;;0.60;;
81864;SDS011;71313;43.514;1.500;2023-10-31T11:04:54;2.67;;;0.60;;
81864;SDS011;71313;43.514;1.500;2023-10-31T11:07:20;3.85;;;0.70;;
81864;SDS011;71313;43.514;1.500;2023-10-31T11:09:49;3.78;;;0.73;;
81864;SDS011;71313;43.514;1.500;2023-10-31T11:12:16;4.18;;;0.77;;
81864;SDS011;71313;43.514;1.500;2023-10-31T11:14:47;4.93;;;0.90;;
81864;SDS011;71313;43.514;1.500;2023-10-31T11:17:24;4.60;;;0.93;;
81864;SDS011;71313;43.514;1.500;2023-10-31T11:19:52;3.28;;;0.80;;
81864;SDS011;71313;43.514;1.500;2023-10-31T11:22:20;3.20;;;0.90;;
81864;SDS011;71313;43.514;1.500;2023-10-31T11:24:48;5.95;;;0.70;;
81864;SDS011;71313;43.514;1.500;2023-10-31T11:27:17;3.47;;;0.88;;
81864;SDS011;71313;43.514;1.500;2023-10-31T11:29:44;3.10;;;0.70;;
81864;SDS011;71313;43.514;1.500;2023-10-31T11:32:10;3.53;;;0.70;;
81864;SDS011;71313;43.514;1.500;2023-10-31T11:34:39;1.67;;;0.43;;
81864;SDS011;71313;43.514;1.500;2023-10-31T11:37:41;2.40;;;0.60;;
81864;SDS011;71313;43.514;1.500;2023-10-31T11:42:47;1.60;;;0.70;;
81864;SDS011;71313;43.514;1.500;2023-10-31T11:48:03;4.55;;;0.85;;
81864;SDS011;71313;43.514;1.500;2023-10-31T11:50:30;2.83;;;0.50;;
81864;SDS011;71313;43.514;1.500;2023-10-31T11:53:09;3.05;;;0.73;;
81864;SDS011;71313;43.514;1.500;2023-10-31T11:55:43;3.53;;;0.82;;
81864;SDS011;71313;43.514;1.500;2023-10-31T11:58:18;3.67;;;0.60;;
81864;SDS011;71313;43.514;1.500;2023-10-31T12:00:49;3.45;;;0.82;;
81864;SDS011;71313;43.514;1.500;2023-10-31T12:03:25;3.17;;;0.60;;
81864;SDS011;71313;43.514;1.500;2023-10-31T12:05:56;3.03;;;0.80;;
81864;SDS011;71313;43.514;1.500;2023-10-31T12:11:05;2.13;;;0.57;;
81864;SDS011;71313;43.514;1.500;2023-10-31T12:13:30;3.65;;;0.85;;
81864;SDS011;71313;43.514;1.500;2023-10-31T12:15:57;3.72;;;0.77;;
81864;SDS011;71313;43.514;1.500;2023-10-31T12:18:29;3.30;;;0.70;;
81864;SDS011;71313;43.514;1.500;2023-10-31T12:20:57;2.42;;;0.57;;
81864;SDS011;71313;43.514;1.500;2023-10-31T12:23:23;3.63;;;0.65;;
81864;SDS011;71313;43.514;1.500;2023-10-31T12:25:50;2.95;;;0.60;;
81864;SDS011;71313;43.514;1.500;2023-10-31T12:28:23;1.80;;;0.60;;
81864;SDS011;71313;43.514;1.500;2023-10-31T12:30:53;1.25;;;0.50;;
81864;SDS011;71313;43.514;1.500;2023-10-31T12:33:25;3.10;;;0.77;;
81864;SDS011;71313;43.514;1.500;2023-10-31T12:35:52;2.08;;;0.57;;
81864;SDS011;71313;43.514;1.500;2023-10-31T12:38:27;2.40;;;0.70;;
81864;SDS011;71313;43.514;1.500;2023-10-31T12:40:54;3.03;;;0.70;;
81864;SDS011;71313;43.514;1.500;2023-10-31T12:43:23;6.88;;;0.90;;
81864;SDS011;71313;43.514;1.500;2023-10-31T12:45:50;3.45;;;0.60;;
81864;SDS011;71313;43.514;1.500;2023-10-31T12:48:17;1.58;;;0.70;;
81864;SDS011;71313;43.514;1.500;2023-10-31T12:50:55;3.22;;;0.70;;
81864;SDS011;71313;43.514;1.500;2023-10-31T12:53:33;4.32;;;0.60;;
81864;SDS011;71313;43.514;1.500;2023-10-31T12:55:59;4.13;;;0.75;;
81864;SDS011;71313;43.514;1.500;2023-10-31T12:58:27;4.70;;;0.80;;
81864;SDS011;71313;43.514;1.500;2023-10-31T13:00:54;3.40;;;1.25;;
81864;SDS011;71313;43.514;1.500;2023-10-31T13:03:20;2.63;;;0.90;;
81864;SDS011;71313;43.514;1.500;2023-10-31T13:05:48;3.78;;;0.65;;
81864;SDS011;71313;43.514;1.500;2023-10-31T13:08:16;1.90;;;0.80;;
81864;SDS011;71313;43.514;1.500;2023-10-31T13:10:43;2.35;;;0.60;;
81864;SDS011;71313;43.514;1.500;2023-10-31T13:13:10;1.55;;;0.55;;
81864;SDS011;71313;43.514;1.500;2023-10-31T13:15:39;2.55;;;0.80;;
81864;SDS011;71313;43.514;1.500;2023-10-31T13:18:07;2.53;;;0.60;;
81864;SDS011;71313;43.514;1.500;2023-10-31T13:20:36;1.95;;;0.45;;
81864;SDS011;71313;43.514;1.500;2023-10-31T13:23:02;1.70;;;0.50;;
81864;SDS011;71313;43.514;1.500;2023-10-31T13:25:30;3.42;;;0.60;;
81864;SDS011;71313;43.514;1.500;2023-10-31T13:27:56;3.45;;;1.35;;
81864;SDS011;71313;43.514;1.500;2023-10-31T13:30:22;2.28;;;0.65;;
81864;SDS011;71313;43.514;1.500;2023-10-31T13:32:49;1.63;;;0.57;;
81864;SDS011;71313;43.514;1.500;2023-10-31T13:35:16;2.80;;;0.63;;
81864;SDS011;71313;43.514;1.500;2023-10-31T13:37:43;2.60;;;0.60;;
81864;SDS011;71313;43.514;1.500;2023-10-31T13:40:12;2.42;;;0.70;;
81864;SDS011;71313;43.514;1.500;2023-10-31T13:42:38;1.40;;;0.50;;
81864;SDS011;71313;43.514;1.500;2023-10-31T13:45:05;4.03;;;0.60;;
81864;SDS011;71313;43.514;1.500;2023-10-31T13:47:32;3.88;;;0.63;;
81864;SDS011;71313;43.514;1.500;2023-10-31T13:49:58;4.22;;;0.88;;
81864;SDS011;71313;43.514;1.500;2023-10-31T13:52:25;2.58;;;0.57;;
81864;SDS011;71313;43.514;1.500;2023-10-31T13:54:56;3.13;;;0.60;;
81864;SDS011;71313;43.514;1.500;2023-10-31T13:57:21;2.85;;;0.93;;
81864;SDS011;71313;43.514;1.500;2023-10-31T13:59:49;3.25;;;0.55;;
81864;SDS011;71313;43.514;1.500;2023-10-31T14:02:15;1.90;;;0.50;;
81864;SDS011;71313;43.514;1.500;2023-10-31T14:04:41;4.03;;;0.65;;
81864;SDS011;71313;43.514;1.500;2023-10-31T14:07:09;3.90;;;1.60;;
81864;SDS011;71313;43.514;1.500;2023-10-31T14:09:42;3.28;;;0.88;;
81864;SDS011;71313;43.514;1.500;2023-10-31T14:12:09;5.60;;;1.02;;
81864;SDS011;71313;43.514;1.500;2023-10-31T14:14:38;3.25;;;1.00;;
81864;SDS011;71313;43.514;1.500;2023-10-31T14:17:06;3.95;;;0.70;;
81864;SDS011;71313;43.514;1.500;2023-10-31T14:19:33;3.88;;;0.52;;
81864;SDS011;71313;43.514;1.500;2023-10-31T14:22:00;2.45;;;0.50;;
81864;SDS011;71313;43.514;1.500;2023-10-31T14:24:26;3.85;;;0.80;;
81864;SDS011;71313;43.514;1.500;2023-10-31T14:26:53;2.08;;;0.57;;
81864;SDS011;71313;43.514;1.500;2023-10-31T14:29:24;2.60;;;0.68;;
81864;SDS011;71313;43.514;1.500;2023-10-31T14:31:50;4.15;;;0.75;;
81864;SDS011;71313;43.514;1.500;2023-10-31T14:34:19;3.92;;;0.70;;
81864;SDS011;71313;43.514;1.500;2023-10-31T14:36:45;2.25;;;0.60;;
81864;SDS011;71313;43.514;1.500;2023-10-31T14:39:13;2.70;;;0.70;;
81864;SDS011;71313;43.514;1.500;2023-10-31T14:41:41;3.40;;;0.80;;
81864;SDS011;71313;43.514;1.500;2023-10-31T14:44:09;2.25;;;0.80;;
81864;SDS011;71313;43.514;1.500;2023-10-31T14:46:37;3.08;;;0.60;;
81864;SDS011;71313;43.514;1.500;2023-10-31T14:49:04;3.67;;;0.88;;
81864;SDS011;71313;43.514;1.500;2023-10-31T14:51:30;3.58;;;0.70;;
81864;SDS011;71313;43.514;1.500;2023-10-31T14:53:57;3.17;;;0.80;;
81864;SDS011;71313;43.514;1.500;2023-10-31T14:56:23;2.80;;;0.70;;
81864;SDS011;71313;43.514;1.500;2023-10-31T14:58:52;5.45;;;1.63;;
81864;SDS011;71313;43.514;1.500;2023-10-31T15:01:18;2.65;;;0.80;;
81864;SDS011;71313;43.514;1.500;2023-10-31T15:03:44;2.30;;;0.70;;
81864;SDS011;71313;43.514;1.500;2023-10-31T15:06:12;5.10;;;0.70;;
81864;SDS011;71313;43.514;1.500;2023-10-31T15:08:40;3.47;;;0.80;;
81864;SDS011;71313;43.514;1.500;2023-10-31T15:11:07;3.97;;;0.50;;
81864;SDS011;71313;43.514;1.500;2023-10-31T15:13:34;2.40;;;0.50;;
81864;SDS011;71313;43.514;1.500;2023-10-31T15:16:01;4.22;;;0.63;;
81864;SDS011;71313;43.514;1.500;2023-10-31T15:18:28;4.32;;;0.50;;
81864;SDS011;71313;43.514;1.500;2023-10-31T15:20:53;4.18;;;0.95;;
81864;SDS011;71313;43.514;1.500;2023-10-31T15:23:22;3.03;;;0.70;;
81864;SDS011;71313;43.514;1.500;2023-10-31T15:25:51;1.52;;;0.80;;
81864;SDS011;71313;43.514;1.500;2023-10-31T15:28:20;3.25;;;0.60;;
81864;SDS011;71313;43.514;1.500;2023-10-31T15:30:48;2.88;;;0.43;;
81864;SDS011;71313;43.514;1.500;2023-10-31T15:33:14;3.15;;;0.68;;
81864;SDS011;71313;43.514;1.500;2023-10-31T15:35:40;2.95;;;0.70;;